This is the latest recevied weather packets stored in our database for station/object DL5ARK. If no packets are shown the sender has not sent any weather packets the latest 10 day(s).
| Time | Temp. | Humidity | Pressure | Rain* | Wind** | Luminosity | Snow |
|---|---|---|---|---|---|---|---|
| 1778065787 | 19.44° C | 63% | 992.9 hPa | 0 mm | - | - | - |
| 1778065607 | 18.33° C | 60% | 992.9 hPa | 0 mm | - | - | - |
| 1778065428 | 18.33° C | 61% | 992.9 hPa | 0 mm | - | - | - |
| 1778065247 | 18.89° C | 62% | 992.9 hPa | 0 mm | - | - | - |
| 1778065067 | 18.33° C | 61% | 992.9 hPa | 0 mm | - | - | - |
| 1778064707 | 18.89° C | 63% | 992.9 hPa | 0 mm | - | - | - |
| 1778064527 | 18.89° C | 64% | 992.6 hPa | 0 mm | - | - | - |
| 1778064347 | 18.33° C | 64% | 992.9 hPa | 0 mm | - | - | - |
| 1778064167 | 18.33° C | 64% | 992.9 hPa | 0 mm | - | - | - |
| 1778063991 | 17.78° C | 64% | 992.9 hPa | 0 mm | - | - | - |
| 1778063808 | 17.78° C | 66% | 992.9 hPa | 0 mm | - | - | - |
| 1778063628 | 17.22° C | 64% | 992.9 hPa | 0 mm | - | - | - |
| 1778063447 | 17.22° C | 63% | 992.9 hPa | 0 mm | - | - | - |
| 1778063268 | 17.78° C | 65% | 992.9 hPa | 0 mm | - | - | - |
| 1778063087 | 17.78° C | 66% | 992.9 hPa | 0 mm | - | - | - |
| 1778062908 | 17.78° C | 66% | 992.9 hPa | 0 mm | - | - | - |
| 1778062727 | 17.78° C | 69% | 992.9 hPa | 0 mm | - | - | - |
| 1778062548 | 17.22° C | 67% | 992.9 hPa | 0 mm | - | - | - |
| 1778062367 | 16.67° C | 68% | 992.9 hPa | 0 mm | - | - | - |
| 1778062188 | 17.22° C | 69% | 992.9 hPa | 0 mm | - | - | - |
| 1778062007 | 17.22° C | 69% | 992.9 hPa | 0 mm | - | - | - |
| 1778061831 | 17.22° C | 68% | 992.9 hPa | 0 mm | - | - | - |
| 1778061647 | 16.67° C | 69% | 992.9 hPa | 0 mm | - | - | - |
| 1778061467 | 16.67° C | 70% | 992.9 hPa | 0 mm | - | - | - |
| 1778061287 | 16.67° C | 70% | 992.9 hPa | 0 mm | - | - | - |
* Rain latest hour (hover to see other rain measurements)
** Current wind speed in m/s (hover to see current wind gust speed)